Shinkyouwa Maru — JG5692 — position and weather

sailwx.info

Track history (hours):
 
Tides and Currents Weather Stations Pressure Air Temp Water Temp Dewpoint Dewpoint Depression Visibility Wind Speed Wind Dir Waves Ship Positions

Shinkyouwa Maru

Last reported at 2018-Jun-14 07:05 UTC. Time now 2018-Jun-18 13:01 UTC.
Position N 35°10' E 139°46'.

Length 104 m; draft 6.6 m.

Type: Ship (hazmat cat A). MMSI: 431101018.

Date/timePositionNaut miles runAvg speedWind from/ knotsBaromVisibWave heightAir tempDewpointWater temp
2018-Jun-14 07:05N 35°10' E 139°46'113.3
2018-Jun-14 07:00N 35°11' E 139°46'611.6
2018-Jun-14 06:30N 35°16' E 139°46'611.5
2018-Jun-14 06:00N 35°21' E 139°42'611.8
2018-Jun-14 05:30N 35°27' E 139°46'713.2
2018-Jun-14 04:57N 35°30' E 139°54'6 0.9
2018-Jun-13 22:45N 35°29' E 140°01'2 6.5
2018-Jun-13 22:27N 35°30' E 139°59'1 0.3
2018-Jun-13 18:58N 35°31' E 139°58'0 0.0
2018-Jun-13 18:28N 35°31' E 139°58'0 0.0
2018-Jun-13 11:10N 35°31' E 139°58'0 0.1
2018-Jun-13 11:00N 35°31' E 139°58'2 0.3
2018-Jun-13 03:19N 35°33' E 139°57'2 4.9
2018-Jun-13 02:57N 35°32' E 139°55'0 0.0
2018-Jun-13 01:12N 35°32' E 139°55'0 0.0
2018-Jun-13 01:00N 35°32' E 139°55'0 0.0
2018-Jun-13 00:27N 35°32' E 139°55'0 0.0
2018-Jun-13 00:00N 35°32' E 139°55'0 0.0
2018-Jun-12 23:28N 35°32' E 139°55'3 7.7
2018-Jun-12 23:00N 35°30' E 139°52'612.5
2018-Jun-12 22:30N 35°25' E 139°47'612.5
2018-Jun-12 22:00N 35°19' E 139°44'611.6
2018-Jun-12 21:30N 35°14' E 139°47'24812.2
2018-Jun-12 01:05N 33°50' E 135°03'214.9
2018-Jun-12 00:58N 33°51' E 135°02'714.3
2018-Jun-12 00:30N 33°57' E 134°59'713.8
2018-Jun-12 00:00N 34°04' E 134°59'714.1
2018-Jun-11 23:30N 34°11' E 134°58'714.0
2018-Jun-11 23:00N 34°18' E 134°59'612.8
2018-Jun-11 22:30N 34°23' E 135°04'713.9
2018-Jun-11 22:00N 34°27' E 135°11'611.9
2018-Jun-11 21:30N 34°29' E 135°18'0 0.3
2018-Jun-11 20:57N 34°29' E 135°18'0 0.0
2018-Jun-11 20:21N 34°29' E 135°18'0 0.0
2018-Jun-11 19:57N 34°29' E 135°18'0 0.0
2018-Jun-11 19:27N 34°29' E 135°18'0 0.0
2018-Jun-11 18:51N 34°29' E 135°18'0 0.0
2018-Jun-11 18:27N 34°29' E 135°18'0 0.0
2018-Jun-11 18:00N 34°29' E 135°18'0 0.0
2018-Jun-11 17:21N 34°29' E 135°18'0 0.0
2018-Jun-11 16:57N 34°29' E 135°18'0 0.0
2018-Jun-11 16:21N 34°29' E 135°18'0 0.0
2018-Jun-11 15:57N 34°29' E 135°18'0 0.1
2018-Jun-11 15:27N 34°29' E 135°18'0 0.1
2018-Jun-11 14:33N 34°29' E 135°18'0 0.1
2018-Jun-11 14:27N 34°29' E 135°18'0 0.0
2018-Jun-11 14:00N 34°29' E 135°18'0 0.0
2018-Jun-11 13:30N 34°29' E 135°18'0 0.0
2018-Jun-11 12:57N 34°29' E 135°18'0 0.1
2018-Jun-11 12:21N 34°29' E 135°18'0 0.0
2018-Jun-11 11:54N 34°29' E 135°18'0 0.0
2018-Jun-11 11:30N 34°29' E 135°18'0 0.0
2018-Jun-11 10:57N 34°29' E 135°18'0 0.0
2018-Jun-11 10:24N 34°29' E 135°18'0 0.1
2018-Jun-11 09:57N 34°29' E 135°18'0 0.0
2018-Jun-11 09:18N 34°29' E 135°18'0 0.0
2018-Jun-11 09:00N 34°29' E 135°18'0 0.1
2018-Jun-11 08:30N 34°29' E 135°18'3 6.4
2018-Jun-11 08:01N 34°32' E 135°19'611.4
2018-Jun-11 07:31N 34°36' E 135°24'2 0.3
2018-Jun-11 00:21N 34°35' E 135°26'2 4.6
2018-Jun-11 00:00N 34°36' E 135°25'4 7.9
2018-Jun-10 23:28N 34°33' E 135°20'3 6.4
2018-Jun-10 23:00N 34°31' E 135°19'0 0.0
2018-Jun-10 22:28N 34°31' E 135°19'0 0.0
2018-Jun-10 21:58N 34°31' E 135°19'0 0.0
2018-Jun-10 21:28N 34°31' E 135°19'0 0.0
2018-Jun-10 20:46N 34°31' E 135°19'0 0.0
2018-Jun-10 20:28N 34°31' E 135°19'0 0.0
2018-Jun-10 19:55N 34°31' E 135°19'0 0.1
2018-Jun-10 19:25N 34°31' E 135°19'0 0.0
2018-Jun-10 18:52N 34°31' E 135°19'0 0.1
2018-Jun-10 18:25N 34°31' E 135°19'0 0.0
2018-Jun-10 17:46N 34°31' E 135°19'0 0.0
2018-Jun-10 17:28N 34°31' E 135°19'0 0.0
2018-Jun-10 16:58N 34°31' E 135°19'0 0.1
2018-Jun-10 16:28N 34°31' E 135°19'0 0.0
2018-Jun-10 15:58N 34°31' E 135°19'0 0.0
2018-Jun-10 15:22N 34°31' E 135°19'0 0.0
2018-Jun-10 13:16N 34°31' E 135°19'0 0.0
2018-Jun-10 12:52N 34°31' E 135°19'0 0.0
2018-Jun-10 11:43N 34°31' E 135°19'0 0.0
2018-Jun-10 10:16N 34°31' E 135°19'0 0.0
2018-Jun-10 09:58N 34°31' E 135°19'0 0.0
2018-Jun-10 09:28N 34°31' E 135°19'0 0.1
2018-Jun-10 08:58N 34°31' E 135°19'0 0.0
2018-Jun-10 08:28N 34°31' E 135°19'0 0.0
2018-Jun-10 07:58N 34°31' E 135°19'0 0.0
2018-Jun-10 07:28N 34°31' E 135°19'0 0.0
2018-Jun-10 06:58N 34°31' E 135°19'0 0.0
2018-Jun-10 06:25N 34°31' E 135°19'0 0.0
2018-Jun-10 05:55N 34°31' E 135°19'0 0.1
2018-Jun-10 05:28N 34°31' E 135°19'0 0.0
2018-Jun-10 04:28N 34°31' E 135°19'0 0.0
2018-Jun-10 03:52N 34°31' E 135°19'0 0.0
2018-Jun-10 03:28N 34°31' E 135°19'0 0.0
2018-Jun-10 02:58N 34°31' E 135°19'0 0.0
2018-Jun-10 02:28N 34°31' E 135°19'0 0.0
2018-Jun-10 01:58N 34°31' E 135°19'0 0.0
2018-Jun-10 01:25N 34°31' E 135°19'0 0.0
2018-Jun-10 00:46N 34°31' E 135°19'0 0.0
2018-Jun-10 00:25N 34°31' E 135°19'0 0.0
2018-Jun-09 23:55N 34°31' E 135°19'0 0.0
2018-Jun-09 23:28N 34°31' E 135°19'0 0.0
2018-Jun-09 22:58N 34°31' E 135°19'0 0.1
2018-Jun-09 22:28N 34°31' E 135°19'0 0.0
2018-Jun-09 21:58N 34°31' E 135°19'0 0.0
2018-Jun-09 21:28N 34°31' E 135°19'0 0.0
2018-Jun-09 20:58N 34°31' E 135°19'0 0.0
2018-Jun-09 20:28N 34°31' E 135°19'0 0.0
2018-Jun-09 19:58N 34°31' E 135°19'0 0.0
2018-Jun-09 19:28N 34°31' E 135°19'0 0.0
2018-Jun-09 18:58N 34°31' E 135°19'0 0.0
2018-Jun-09 18:28N 34°31' E 135°19'0 0.0
2018-Jun-09 17:58N 34°31' E 135°19'0 0.0
2018-Jun-09 17:28N 34°31' E 135°19'0 0.1
2018-Jun-09 16:58N 34°31' E 135°19'0 0.1
2018-Jun-09 16:28N 34°31' E 135°19'0 0.1
2018-Jun-09 15:58N 34°31' E 135°19'0 0.0
2018-Jun-09 15:16N 34°31' E 135°19'0 0.0
2018-Jun-09 14:25N 34°31' E 135°19'0 0.0
2018-Jun-09 13:58N 34°31' E 135°19'0 0.0
2018-Jun-09 13:25N 34°31' E 135°19'0 0.0
2018-Jun-09 12:55N 34°31' E 135°19'0 0.0
2018-Jun-09 12:28N 34°31' E 135°19'0 0.0
2018-Jun-09 11:46N 34°31' E 135°19'0 0.0
2018-Jun-09 11:28N 34°31' E 135°19'0 0.0
2018-Jun-09 10:58N 34°31' E 135°19'0 0.0
2018-Jun-09 10:28N 34°31' E 135°19'0 0.0
2018-Jun-09 09:22N 34°31' E 135°19'0 0.0
2018-Jun-09 08:58N 34°31' E 135°19'0 0.0
2018-Jun-09 08:04N 34°31' E 135°19'0 0.6
2018-Jun-09 07:59N 34°31' E 135°19'510.8
2018-Jun-09 07:31N 34°35' E 135°21'4 7.1
2018-Jun-09 07:00N 34°35' E 135°26'0 0.0
2018-Jun-08 23:20N 34°35' E 135°26'1 2.6
2018-Jun-08 23:00N 34°35' E 135°26'1 0.0
2018-Jun-08 00:57N 34°35' E 135°27'3 6.2
2018-Jun-08 00:30N 34°36' E 135°24'2 2.3
2018-Jun-07 23:46N 34°36' E 135°22'0 0.0
2018-Jun-07 23:22N 34°36' E 135°22'0 0.1
2018-Jun-07 22:58N 34°36' E 135°22'0 0.0
2018-Jun-07 22:28N 34°36' E 135°22'0 0.1
2018-Jun-07 21:45N 34°36' E 135°22'2 8.2
2018-Jun-07 21:30N 34°35' E 135°20'714.4
2018-Jun-07 21:00N 34°30' E 135°13'714.6
2018-Jun-07 20:31N 34°25' E 135°07'815.1
2018-Jun-07 20:00N 34°19' E 135°02'714.7
2018-Jun-07 19:30N 34°12' E 134°60'815.6
2018-Jun-07 19:01N 34°04' E 135°01'815.7
2018-Jun-07 18:30N 33°56' E 135°01'  
2018-Jun-04 08:47N 35°12' E 139°46'312.5
2018-Jun-04 08:31N 35°15' E 139°46'612.4
2018-Jun-04 08:00N 35°21' E 139°43'612.3
2018-Jun-04 07:30N 35°26' E 139°46'  
Track history (hours):
 
Tides and Currents Weather Stations Pressure Air Temp Water Temp Dewpoint Dewpoint Depression Visibility Wind Speed Wind Dir Waves Ship Positions

Shinkyouwa Maru

Last reported at 2018-Jun-14 07:05 UTC. Time now 2018-Jun-18 13:01 UTC.
Position N 35°10' E 139°46'.

Length 104 m; draft 6.6 m.

Type: Ship (hazmat cat A). MMSI: 431101018.

Date/timePositionNaut miles runAvg speedWind from/ knotsBaromVisibWave heightAir tempDewpointWater temp
2018-Jun-14 07:05N 35°10' E 139°46'113.3
2018-Jun-14 07:00N 35°11' E 139°46'611.6
2018-Jun-14 06:30N 35°16' E 139°46'611.5
2018-Jun-14 06:00N 35°21' E 139°42'611.8
2018-Jun-14 05:30N 35°27' E 139°46'713.2
2018-Jun-14 04:57N 35°30' E 139°54'6 0.9
2018-Jun-13 22:45N 35°29' E 140°01'2 6.5
2018-Jun-13 22:27N 35°30' E 139°59'1 0.3
2018-Jun-13 18:58N 35°31' E 139°58'0 0.0
2018-Jun-13 18:28N 35°31' E 139°58'0 0.0
2018-Jun-13 11:10N 35°31' E 139°58'0 0.1
2018-Jun-13 11:00N 35°31' E 139°58'2 0.3
2018-Jun-13 03:19N 35°33' E 139°57'2 4.9
2018-Jun-13 02:57N 35°32' E 139°55'0 0.0
2018-Jun-13 01:12N 35°32' E 139°55'0 0.0
2018-Jun-13 01:00N 35°32' E 139°55'0 0.0
2018-Jun-13 00:27N 35°32' E 139°55'0 0.0
2018-Jun-13 00:00N 35°32' E 139°55'0 0.0
2018-Jun-12 23:28N 35°32' E 139°55'3 7.7
2018-Jun-12 23:00N 35°30' E 139°52'612.5
2018-Jun-12 22:30N 35°25' E 139°47'612.5
2018-Jun-12 22:00N 35°19' E 139°44'611.6
2018-Jun-12 21:30N 35°14' E 139°47'24812.2
2018-Jun-12 01:05N 33°50' E 135°03'214.9
2018-Jun-12 00:58N 33°51' E 135°02'714.3
2018-Jun-12 00:30N 33°57' E 134°59'713.8
2018-Jun-12 00:00N 34°04' E 134°59'714.1
2018-Jun-11 23:30N 34°11' E 134°58'714.0
2018-Jun-11 23:00N 34°18' E 134°59'612.8
2018-Jun-11 22:30N 34°23' E 135°04'713.9
2018-Jun-11 22:00N 34°27' E 135°11'611.9
2018-Jun-11 21:30N 34°29' E 135°18'0 0.3
2018-Jun-11 20:57N 34°29' E 135°18'0 0.0
2018-Jun-11 20:21N 34°29' E 135°18'0 0.0
2018-Jun-11 19:57N 34°29' E 135°18'0 0.0
2018-Jun-11 19:27N 34°29' E 135°18'0 0.0
2018-Jun-11 18:51N 34°29' E 135°18'0 0.0
2018-Jun-11 18:27N 34°29' E 135°18'0 0.0
2018-Jun-11 18:00N 34°29' E 135°18'0 0.0
2018-Jun-11 17:21N 34°29' E 135°18'0 0.0
2018-Jun-11 16:57N 34°29' E 135°18'0 0.0
2018-Jun-11 16:21N 34°29' E 135°18'0 0.0
2018-Jun-11 15:57N 34°29' E 135°18'0 0.1
2018-Jun-11 15:27N 34°29' E 135°18'0 0.1
2018-Jun-11 14:33N 34°29' E 135°18'0 0.1
2018-Jun-11 14:27N 34°29' E 135°18'0 0.0
2018-Jun-11 14:00N 34°29' E 135°18'0 0.0
2018-Jun-11 13:30N 34°29' E 135°18'0 0.0
2018-Jun-11 12:57N 34°29' E 135°18'0 0.1
2018-Jun-11 12:21N 34°29' E 135°18'0 0.0
2018-Jun-11 11:54N 34°29' E 135°18'0 0.0
2018-Jun-11 11:30N 34°29' E 135°18'0 0.0
2018-Jun-11 10:57N 34°29' E 135°18'0 0.0
2018-Jun-11 10:24N 34°29' E 135°18'0 0.1
2018-Jun-11 09:57N 34°29' E 135°18'0 0.0
2018-Jun-11 09:18N 34°29' E 135°18'0 0.0
2018-Jun-11 09:00N 34°29' E 135°18'0 0.1
2018-Jun-11 08:30N 34°29' E 135°18'3 6.4
2018-Jun-11 08:01N 34°32' E 135°19'611.4
2018-Jun-11 07:31N 34°36' E 135°24'2 0.3
2018-Jun-11 00:21N 34°35' E 135°26'2 4.6
2018-Jun-11 00:00N 34°36' E 135°25'4 7.9
2018-Jun-10 23:28N 34°33' E 135°20'3 6.4
2018-Jun-10 23:00N 34°31' E 135°19'0 0.0
2018-Jun-10 22:28N 34°31' E 135°19'0 0.0
2018-Jun-10 21:58N 34°31' E 135°19'0 0.0
2018-Jun-10 21:28N 34°31' E 135°19'0 0.0
2018-Jun-10 20:46N 34°31' E 135°19'0 0.0
2018-Jun-10 20:28N 34°31' E 135°19'0 0.0
2018-Jun-10 19:55N 34°31' E 135°19'0 0.1
2018-Jun-10 19:25N 34°31' E 135°19'0 0.0
2018-Jun-10 18:52N 34°31' E 135°19'0 0.1
2018-Jun-10 18:25N 34°31' E 135°19'0 0.0
2018-Jun-10 17:46N 34°31' E 135°19'0 0.0
2018-Jun-10 17:28N 34°31' E 135°19'0 0.0
2018-Jun-10 16:58N 34°31' E 135°19'0 0.1
2018-Jun-10 16:28N 34°31' E 135°19'0 0.0
2018-Jun-10 15:58N 34°31' E 135°19'0 0.0
2018-Jun-10 15:22N 34°31' E 135°19'0 0.0
2018-Jun-10 13:16N 34°31' E 135°19'0 0.0
2018-Jun-10 12:52N 34°31' E 135°19'0 0.0
2018-Jun-10 11:43N 34°31' E 135°19'0 0.0
2018-Jun-10 10:16N 34°31' E 135°19'0 0.0
2018-Jun-10 09:58N 34°31' E 135°19'0 0.0
2018-Jun-10 09:28N 34°31' E 135°19'0 0.1
2018-Jun-10 08:58N 34°31' E 135°19'0 0.0
2018-Jun-10 08:28N 34°31' E 135°19'0 0.0
2018-Jun-10 07:58N 34°31' E 135°19'0 0.0
2018-Jun-10 07:28N 34°31' E 135°19'0 0.0
2018-Jun-10 06:58N 34°31' E 135°19'0 0.0
2018-Jun-10 06:25N 34°31' E 135°19'0 0.0
2018-Jun-10 05:55N 34°31' E 135°19'0 0.1
2018-Jun-10 05:28N 34°31' E 135°19'0 0.0
2018-Jun-10 04:28N 34°31' E 135°19'0 0.0
2018-Jun-10 03:52N 34°31' E 135°19'0 0.0
2018-Jun-10 03:28N 34°31' E 135°19'0 0.0
2018-Jun-10 02:58N 34°31' E 135°19'0 0.0
2018-Jun-10 02:28N 34°31' E 135°19'0 0.0
2018-Jun-10 01:58N 34°31' E 135°19'0 0.0
2018-Jun-10 01:25N 34°31' E 135°19'0 0.0
2018-Jun-10 00:46N 34°31' E 135°19'0 0.0
2018-Jun-10 00:25N 34°31' E 135°19'0 0.0
2018-Jun-09 23:55N 34°31' E 135°19'0 0.0
2018-Jun-09 23:28N 34°31' E 135°19'0 0.0
2018-Jun-09 22:58N 34°31' E 135°19'0 0.1
2018-Jun-09 22:28N 34°31' E 135°19'0 0.0
2018-Jun-09 21:58N 34°31' E 135°19'0 0.0
2018-Jun-09 21:28N 34°31' E 135°19'0 0.0
2018-Jun-09 20:58N 34°31' E 135°19'0 0.0
2018-Jun-09 20:28N 34°31' E 135°19'0 0.0
2018-Jun-09 19:58N 34°31' E 135°19'0 0.0
2018-Jun-09 19:28N 34°31' E 135°19'0 0.0
2018-Jun-09 18:58N 34°31' E 135°19'0 0.0
2018-Jun-09 18:28N 34°31' E 135°19'0 0.0
2018-Jun-09 17:58N 34°31' E 135°19'0 0.0
2018-Jun-09 17:28N 34°31' E 135°19'0 0.1
2018-Jun-09 16:58N 34°31' E 135°19'0 0.1
2018-Jun-09 16:28N 34°31' E 135°19'0 0.1
2018-Jun-09 15:58N 34°31' E 135°19'0 0.0
2018-Jun-09 15:16N 34°31' E 135°19'0 0.0
2018-Jun-09 14:25N 34°31' E 135°19'0 0.0
2018-Jun-09 13:58N 34°31' E 135°19'0 0.0
2018-Jun-09 13:25N 34°31' E 135°19'0 0.0
2018-Jun-09 12:55N 34°31' E 135°19'0 0.0
2018-Jun-09 12:28N 34°31' E 135°19'0 0.0
2018-Jun-09 11:46N 34°31' E 135°19'0 0.0
2018-Jun-09 11:28N 34°31' E 135°19'0 0.0
2018-Jun-09 10:58N 34°31' E 135°19'0 0.0
2018-Jun-09 10:28N 34°31' E 135°19'0 0.0
2018-Jun-09 09:22N 34°31' E 135°19'0 0.0
2018-Jun-09 08:58N 34°31' E 135°19'0 0.0
2018-Jun-09 08:04N 34°31' E 135°19'0 0.6
2018-Jun-09 07:59N 34°31' E 135°19'510.8
2018-Jun-09 07:31N 34°35' E 135°21'4 7.1
2018-Jun-09 07:00N 34°35' E 135°26'0 0.0
2018-Jun-08 23:20N 34°35' E 135°26'1 2.6
2018-Jun-08 23:00N 34°35' E 135°26'1 0.0
2018-Jun-08 00:57N 34°35' E 135°27'3 6.2
2018-Jun-08 00:30N 34°36' E 135°24'2 2.3
2018-Jun-07 23:46N 34°36' E 135°22'0 0.0
2018-Jun-07 23:22N 34°36' E 135°22'0 0.1
2018-Jun-07 22:58N 34°36' E 135°22'0 0.0
2018-Jun-07 22:28N 34°36' E 135°22'0 0.1
2018-Jun-07 21:45N 34°36' E 135°22'2 8.2
2018-Jun-07 21:30N 34°35' E 135°20'714.4
2018-Jun-07 21:00N 34°30' E 135°13'714.6
2018-Jun-07 20:31N 34°25' E 135°07'815.1
2018-Jun-07 20:00N 34°19' E 135°02'714.7
2018-Jun-07 19:30N 34°12' E 134°60'815.6
2018-Jun-07 19:01N 34°04' E 135°01'815.7
2018-Jun-07 18:30N 33°56' E 135°01'  
2018-Jun-04 08:47N 35°12' E 139°46'312.5
2018-Jun-04 08:31N 35°15' E 139°46'612.4
2018-Jun-04 08:00N 35°21' E 139°43'612.3
2018-Jun-04 07:30N 35°26' E 139°46'  

Dump ship's entire track history